createdAt,value
2019-04-04T00:01:48.719Z,11.40
2019-04-04T00:04:26.825Z,11.40
2019-04-04T00:07:05.001Z,11.40
2019-04-04T00:09:43.326Z,11.30
2019-04-04T00:12:21.328Z,11.30
2019-04-04T00:14:59.206Z,11.30
2019-04-04T00:17:37.212Z,11.30
2019-04-04T00:20:15.392Z,11.30
2019-04-04T00:22:54.655Z,11.30
2019-04-04T00:25:40.300Z,11.20
2019-04-04T00:28:19.195Z,11.20
2019-04-04T00:30:57.397Z,11.20
2019-04-04T00:33:35.127Z,11.20
2019-04-04T00:36:13.082Z,11.20
2019-04-04T00:38:51.030Z,11.20
2019-04-04T00:41:30.791Z,11.20
2019-04-04T00:44:08.922Z,11.10
2019-04-04T00:46:47.264Z,11.10
2019-04-04T00:49:26.129Z,11.10
2019-04-04T00:52:10.043Z,11.10
2019-04-04T00:54:47.766Z,11.10
2019-04-04T00:57:26.209Z,11.00
2019-04-04T01:00:11.547Z,11.00
2019-04-04T01:02:49.235Z,11.00
2019-04-04T01:05:27.311Z,10.90
2019-04-04T01:08:09.253Z,11.00
2019-04-04T01:10:49.504Z,11.00
2019-04-04T01:13:29.216Z,10.90
2019-04-04T01:16:08.939Z,11.00
2019-04-04T01:18:47.215Z,10.90
2019-04-04T01:21:25.095Z,10.90
2019-04-04T01:24:04.686Z,10.90
2019-04-04T01:26:42.546Z,10.90
2019-04-04T01:29:20.806Z,10.80
2019-04-04T01:31:58.797Z,10.80
2019-04-04T01:34:46.469Z,10.70
2019-04-04T01:37:25.214Z,10.70
2019-04-04T01:40:05.855Z,10.60
2019-04-04T01:42:43.533Z,10.60
2019-04-04T01:45:24.173Z,10.60
2019-04-04T01:48:02.376Z,10.60
2019-04-04T01:50:43.694Z,10.60
2019-04-04T01:53:21.894Z,10.50
2019-04-04T01:56:00.070Z,10.50
2019-04-04T01:58:41.792Z,10.50
2019-04-04T02:01:19.437Z,10.50
2019-04-04T02:03:58.294Z,10.50
2019-04-04T02:06:36.435Z,10.40
2019-04-04T02:09:19.040Z,10.40
2019-04-04T02:11:58.825Z,10.40
2019-04-04T02:14:36.834Z,10.30
2019-04-04T02:17:20.079Z,10.30
2019-04-04T02:20:00.910Z,10.30
2019-04-04T02:22:39.318Z,10.30
2019-04-04T02:25:17.050Z,10.30
2019-04-04T02:27:54.980Z,10.30
2019-04-04T02:30:41.649Z,10.30
2019-04-04T02:33:22.219Z,10.30
2019-04-04T02:36:00.472Z,10.30
2019-04-04T02:38:44.114Z,10.20
2019-04-04T02:41:32.459Z,10.20
2019-04-04T02:44:10.299Z,10.10
2019-04-04T02:47:01.664Z,10.10
2019-04-04T02:49:39.105Z,10.00
2019-04-04T02:52:17.165Z,9.90
2019-04-04T02:54:58.161Z,9.80
2019-04-04T02:57:34.617Z,9.70
2019-04-04T03:00:40.048Z,9.70
2019-04-04T03:03:22.586Z,9.60
2019-04-04T03:06:00.359Z,9.50
2019-04-04T03:08:38.414Z,9.40
2019-04-04T03:11:32.855Z,9.40
2019-04-04T03:14:11.118Z,9.30
2019-04-04T03:16:56.297Z,9.30
2019-04-04T03:19:35.728Z,9.20
2019-04-04T03:22:16.138Z,9.20
2019-04-04T03:24:56.915Z,9.20
2019-04-04T03:27:36.152Z,9.10
2019-04-04T03:30:19.758Z,9.10
2019-04-04T03:33:04.407Z,9.10
2019-04-04T03:35:42.560Z,9.10
2019-04-04T03:38:20.425Z,9.00
2019-04-04T03:41:02.149Z,9.00
2019-04-04T03:43:51.995Z,9.00
2019-04-04T03:46:38.804Z,9.00
2019-04-04T03:49:15.715Z,9.00
2019-04-04T03:51:53.324Z,9.00
2019-04-04T03:54:31.647Z,9.00
2019-04-04T03:57:12.537Z,9.00
2019-04-04T03:59:56.760Z,9.00
2019-04-04T04:02:34.923Z,9.00
2019-04-04T04:05:26.214Z,8.90
2019-04-04T04:08:04.377Z,9.00
2019-04-04T04:10:42.304Z,9.00
2019-04-04T04:13:21.219Z,8.90
2019-04-04T04:16:02.477Z,8.90
2019-04-04T04:18:40.866Z,9.00
2019-04-04T04:21:22.046Z,9.00
2019-04-04T04:24:03.877Z,9.00
2019-04-04T04:26:41.900Z,9.10
2019-04-04T04:29:29.479Z,9.20
2019-04-04T04:32:08.097Z,9.20
2019-04-04T04:34:46.239Z,9.30
2019-04-04T04:37:25.908Z,9.30
2019-04-04T04:40:02.919Z,9.40
2019-04-04T04:42:40.859Z,9.40
2019-04-04T04:45:19.591Z,9.50
2019-04-04T04:47:59.111Z,9.50
2019-04-04T04:51:48.385Z,9.60
2019-04-04T04:54:27.151Z,9.60
2019-04-04T04:57:06.077Z,9.80
2019-04-04T04:59:45.643Z,9.80
2019-04-04T05:02:23.641Z,9.90
2019-04-04T05:05:01.239Z,9.90
2019-04-04T05:07:42.014Z,10.00
2019-04-04T05:10:20.009Z,10.10
2019-04-04T05:12:57.458Z,10.20
2019-04-04T05:15:36.510Z,10.20
2019-04-04T05:18:16.309Z,10.30
2019-04-04T05:20:53.792Z,10.40
2019-04-04T05:23:31.442Z,10.50
2019-04-04T05:26:10.575Z,10.60
2019-04-04T05:28:48.474Z,10.70
2019-04-04T05:31:26.603Z,10.70
2019-04-04T05:34:04.135Z,10.90
2019-04-04T05:36:41.665Z,11.00
2019-04-04T05:39:19.599Z,11.10
2019-04-04T05:41:58.082Z,11.20
2019-04-04T05:44:36.413Z,11.40
2019-04-04T05:47:14.115Z,11.50
2019-04-04T05:49:51.661Z,11.60
2019-04-04T05:52:30.498Z,11.80
2019-04-04T05:55:10.853Z,11.90
2019-04-04T05:57:49.002Z,12.00
2019-04-04T06:00:28.406Z,12.10
2019-04-04T06:03:05.955Z,12.20
2019-04-04T06:05:43.361Z,12.30
2019-04-04T06:08:20.778Z,12.40
2019-04-04T06:10:58.505Z,12.50
2019-04-04T06:13:36.554Z,12.50
2019-04-04T06:16:14.025Z,12.70
2019-04-04T06:18:51.554Z,12.70
2019-04-04T06:21:29.338Z,12.80
2019-04-04T06:24:06.623Z,12.90
2019-04-04T06:26:45.172Z,13.00
2019-04-04T06:29:22.650Z,13.00
2019-04-04T06:32:00.946Z,13.10
2019-04-04T06:34:38.763Z,13.20
2019-04-04T06:37:18.074Z,13.30
2019-04-04T06:39:58.458Z,13.40
2019-04-04T06:42:37.602Z,13.40
2019-04-04T06:45:16.546Z,13.50
2019-04-04T06:47:57.109Z,13.60
2019-04-04T06:50:33.912Z,13.70
2019-04-04T06:53:11.724Z,13.80
2019-04-04T06:56:15.614Z,13.80
2019-04-04T06:58:55.159Z,13.90
2019-04-04T07:01:38.309Z,14.00
2019-04-04T07:04:17.414Z,14.10
2019-04-04T07:06:55.154Z,14.20
2019-04-04T07:09:33.145Z,14.20
2019-04-04T07:12:20.882Z,14.30
2019-04-04T07:14:50.178Z,14.40
2019-04-04T07:17:27.891Z,14.50
2019-04-04T07:20:08.638Z,14.60
2019-04-04T07:22:46.442Z,14.70
2019-04-04T07:25:24.023Z,14.90
2019-04-04T07:28:01.658Z,15.10
2019-04-04T07:30:39.433Z,15.40
2019-04-04T07:33:17.348Z,15.90
2019-04-04T07:35:56.613Z,16.70
2019-04-04T07:38:35.088Z,17.40
2019-04-04T07:41:14.800Z,18.10
2019-04-04T07:43:52.343Z,18.70
2019-04-04T07:46:29.607Z,19.20
2019-04-04T07:49:07.420Z,19.60
2019-04-04T07:51:45.722Z,19.90
2019-04-04T07:54:23.469Z,20.30
2019-04-04T07:57:01.666Z,20.50
2019-04-04T07:59:39.560Z,20.70
2019-04-04T08:02:18.390Z,21.00
2019-04-04T08:04:56.426Z,21.20
2019-04-04T08:07:36.605Z,21.40
2019-04-04T08:10:20.757Z,21.60
2019-04-04T08:12:56.104Z,21.70
2019-04-04T08:15:35.924Z,21.90
2019-04-04T08:18:14.136Z,22.00
2019-04-04T08:20:52.036Z,22.10
2019-04-04T08:23:31.954Z,22.20
2019-04-04T08:26:10.667Z,22.30
2019-04-04T08:28:48.942Z,22.40
2019-04-04T08:31:27.347Z,22.40
2019-04-04T08:34:05.747Z,22.50
2019-04-04T08:36:43.878Z,22.50
2019-04-04T08:39:22.093Z,22.60
2019-04-04T08:42:02.320Z,22.60
2019-04-04T08:44:40.365Z,22.80
2019-04-04T08:47:20.571Z,22.80
2019-04-04T08:50:01.391Z,22.80
2019-04-04T08:52:39.099Z,22.80
2019-04-04T08:55:18.734Z,22.80
2019-04-04T08:57:56.702Z,22.70
2019-04-04T09:00:34.606Z,22.60
2019-04-04T09:03:12.522Z,22.50
2019-04-04T09:05:50.467Z,22.40
2019-04-04T09:08:28.745Z,22.10
2019-04-04T09:11:06.725Z,21.80
2019-04-04T09:13:44.938Z,21.60
2019-04-04T09:16:22.706Z,21.30
2019-04-04T09:19:00.875Z,21.10
2019-04-04T09:21:38.858Z,20.90
2019-04-04T09:24:16.896Z,20.60
2019-04-04T09:26:54.635Z,20.50
2019-04-04T09:29:32.723Z,20.40
2019-04-04T09:32:10.971Z,20.30
2019-04-04T09:34:48.828Z,20.20
2019-04-04T09:37:27.903Z,20.10
2019-04-04T09:40:06.812Z,20.00
2019-04-04T09:42:44.922Z,20.00
2019-04-04T09:45:23.951Z,20.00
2019-04-04T09:48:03.963Z,20.00
2019-04-04T09:50:41.316Z,20.10
2019-04-04T09:53:18.455Z,20.10
2019-04-04T09:55:55.781Z,20.10
2019-04-04T09:58:35.267Z,20.00
2019-04-04T10:01:12.766Z,20.10
2019-04-04T10:03:51.273Z,20.10
2019-04-04T10:06:29.440Z,20.10
2019-04-04T10:09:15.505Z,20.10
2019-04-04T10:11:46.074Z,20.20
2019-04-04T10:14:23.815Z,20.20
2019-04-04T10:17:00.890Z,20.20
2019-04-04T10:19:39.180Z,20.30
2019-04-04T10:22:18.163Z,20.30
2019-04-04T10:24:55.870Z,20.30
2019-04-04T10:27:33.195Z,20.40
2019-04-04T10:30:11.496Z,20.40
2019-04-04T10:32:49.361Z,20.40
2019-04-04T10:35:26.757Z,20.50
2019-04-04T10:38:04.422Z,20.50
2019-04-04T10:40:42.215Z,20.60
2019-04-04T10:43:20.376Z,20.70
2019-04-04T10:45:58.734Z,20.80
2019-04-04T10:48:39.973Z,20.80
2019-04-04T10:51:17.956Z,20.90
2019-04-04T10:53:55.742Z,21.00
2019-04-04T10:56:33.987Z,21.00
2019-04-04T10:59:11.910Z,21.00
2019-04-04T11:01:50.085Z,21.00
2019-04-04T11:04:28.311Z,21.00
2019-04-04T11:07:10.550Z,21.10
2019-04-04T11:09:48.062Z,21.10
2019-04-04T11:12:26.270Z,21.10
2019-04-04T11:15:05.751Z,21.00
2019-04-04T11:17:43.739Z,21.00
2019-04-04T11:20:21.819Z,21.00
2019-04-04T11:22:59.782Z,21.00
2019-04-04T11:25:37.642Z,21.00
2019-04-04T11:28:15.043Z,21.10
2019-04-04T11:30:57.346Z,21.20
2019-04-04T11:33:35.495Z,21.30
2019-04-04T11:36:16.706Z,21.30
2019-04-04T11:39:08.152Z,21.40
2019-04-04T11:41:50.470Z,21.40
2019-04-04T11:44:41.824Z,21.40
2019-04-04T11:47:30.890Z,21.40
2019-04-04T11:50:18.678Z,21.40
2019-04-04T11:53:06.692Z,21.40
2019-04-04T11:56:05.587Z,21.40
2019-04-04T11:58:54.808Z,21.50
2019-04-04T12:01:49.195Z,21.50
2019-04-04T12:04:27.600Z,21.50
2019-04-04T12:07:14.680Z,21.60
2019-04-04T12:10:08.555Z,21.60
2019-04-04T12:12:58.422Z,21.70
2019-04-04T12:15:43.787Z,21.70
2019-04-04T12:18:28.830Z,21.80
2019-04-04T12:21:10.500Z,21.90
2019-04-04T12:23:58.599Z,22.00
2019-04-04T12:26:51.686Z,22.00
2019-04-04T12:29:34.826Z,22.00
2019-04-04T12:32:23.806Z,22.00
2019-04-04T12:35:11.341Z,22.00
2019-04-04T12:37:55.224Z,22.00
2019-04-04T12:40:58.288Z,22.00
2019-04-04T12:43:43.365Z,22.00
2019-04-04T12:46:34.728Z,22.00
2019-04-04T12:49:15.932Z,22.00
2019-04-04T12:52:08.104Z,22.00
2019-04-04T12:54:58.279Z,22.00
2019-04-04T13:00:52.048Z,22.00
2019-04-04T13:03:34.815Z,22.10
2019-04-04T13:06:24.422Z,22.10
2019-04-04T13:09:09.444Z,22.10
2019-04-04T13:11:52.426Z,22.10
2019-04-04T13:14:56.370Z,22.00
2019-04-04T13:17:47.958Z,22.10
2019-04-04T13:20:40.959Z,22.10
2019-04-04T13:23:26.528Z,22.10
2019-04-04T13:26:08.681Z,22.00
2019-04-04T13:28:54.395Z,22.00
2019-04-04T13:31:41.585Z,22.00
2019-04-04T13:34:37.335Z,21.90
2019-04-04T13:37:32.906Z,21.90
2019-04-04T13:40:17.999Z,21.90
2019-04-04T13:43:09.893Z,21.90
2019-04-04T13:46:10.986Z,21.90
2019-04-04T13:49:14.930Z,21.90
2019-04-04T13:52:11.740Z,21.90
2019-04-04T13:55:04.438Z,21.90
2019-04-04T13:58:04.309Z,21.90
2019-04-04T14:00:51.782Z,21.90
2019-04-04T14:03:51.808Z,21.90
2019-04-04T14:06:46.722Z,21.90
2019-04-04T14:09:39.908Z,21.90
2019-04-04T14:12:37.513Z,21.90
2019-04-04T14:15:32.515Z,21.90
2019-04-04T14:18:38.964Z,21.80
2019-04-04T14:21:08.725Z,21.80
2019-04-04T14:23:53.584Z,21.80
2019-04-04T14:26:42.323Z,21.80
2019-04-04T14:29:40.526Z,21.80
2019-04-04T14:32:27.952Z,21.80
2019-04-04T14:35:18.726Z,21.80
2019-04-04T14:38:03.947Z,21.80
2019-04-04T14:40:49.153Z,21.70
2019-04-04T14:43:46.257Z,21.60
2019-04-04T14:46:33.905Z,21.30
2019-04-04T14:49:18.761Z,21.20
2019-04-04T14:55:10.040Z,20.90
2019-04-04T14:57:55.111Z,20.70
2019-04-04T15:00:39.973Z,20.60
2019-04-04T15:03:30.599Z,20.50
2019-04-04T15:06:36.816Z,20.40
2019-04-04T15:09:12.387Z,20.20
2019-04-04T15:12:07.450Z,20.10
2019-04-04T15:14:49.702Z,20.10
2019-04-04T15:17:48.850Z,20.10
2019-04-04T15:20:57.152Z,20.10
2019-04-04T15:24:09.482Z,20.10
2019-04-04T15:26:57.026Z,20.10
2019-04-04T15:29:38.064Z,20.10
2019-04-04T15:32:25.441Z,20.10
2019-04-04T15:35:14.382Z,20.10
2019-04-04T15:38:20.283Z,20.10
2019-04-04T15:41:02.189Z,20.10
2019-04-04T15:43:43.293Z,20.00
2019-04-04T15:46:33.036Z,20.00
2019-04-04T15:49:40.112Z,19.90
2019-04-04T15:52:28.476Z,19.80
2019-04-04T15:55:26.525Z,19.70
2019-04-04T15:58:12.690Z,19.60
2019-04-04T16:01:13.411Z,19.60
2019-04-04T16:03:52.992Z,19.50
2019-04-04T16:06:32.649Z,19.40
2019-04-04T16:09:13.419Z,19.40
2019-04-04T16:11:56.361Z,19.30
2019-04-04T16:14:38.215Z,19.20
2019-04-04T16:17:33.465Z,19.10
2019-04-04T16:20:17.463Z,19.00
2019-04-04T16:22:57.595Z,18.90
2019-04-04T16:25:37.549Z,18.90
2019-04-04T16:28:15.695Z,18.80
2019-04-04T16:31:09.098Z,18.70
2019-04-04T16:34:04.997Z,18.60
2019-04-04T16:36:45.792Z,18.50
2019-04-04T16:40:09.780Z,18.50
2019-04-04T16:42:56.595Z,18.40
2019-04-04T16:45:51.762Z,18.30
2019-04-04T16:49:07.854Z,18.10
2019-04-04T16:51:56.356Z,18.00
2019-04-04T16:54:35.877Z,17.90
2019-04-04T16:57:43.138Z,17.90
2019-04-04T17:00:29.733Z,17.80
2019-04-04T17:03:11.444Z,17.70
2019-04-04T17:05:51.760Z,17.60
2019-04-04T17:08:37.103Z,17.60
2019-04-04T17:11:14.696Z,17.50
2019-04-04T17:14:01.869Z,17.40
2019-04-04T17:16:41.967Z,17.30
2019-04-04T17:19:21.713Z,17.20
2019-04-04T17:22:44.484Z,17.10
2019-04-04T17:25:31.879Z,17.00
2019-04-04T17:28:12.752Z,16.90
2019-04-04T17:30:54.063Z,16.80
2019-04-04T17:33:32.228Z,16.70
2019-04-04T17:36:10.688Z,16.60
2019-04-04T17:38:50.325Z,16.50
2019-04-04T17:41:33.875Z,16.40
2019-04-04T17:44:34.323Z,16.30
2019-04-04T17:47:20.220Z,16.20
2019-04-04T17:50:01.750Z,16.10
2019-04-04T17:52:40.133Z,16.00
2019-04-04T17:55:17.717Z,16.00
2019-04-04T17:58:09.306Z,15.90
2019-04-04T18:01:10.222Z,15.90
2019-04-04T18:04:28.994Z,15.80
2019-04-04T18:07:28.741Z,15.80
2019-04-04T18:10:23.722Z,15.80
2019-04-04T18:13:04.335Z,15.80
2019-04-04T18:15:52.772Z,15.80
2019-04-04T18:18:44.833Z,15.80
2019-04-04T18:21:25.676Z,15.70
2019-04-04T18:24:05.190Z,15.70
2019-04-04T18:26:48.925Z,15.70
2019-04-04T18:29:26.641Z,15.70
2019-04-04T18:32:13.057Z,15.70
2019-04-04T18:34:55.757Z,15.70
2019-04-04T18:37:37.090Z,15.70
2019-04-04T18:40:25.050Z,15.70
2019-04-04T18:46:11.689Z,15.60
2019-04-04T18:48:50.941Z,15.60
2019-04-04T18:51:47.983Z,15.70
2019-04-04T18:54:50.051Z,15.60
2019-04-04T18:58:01.061Z,15.60
2019-04-04T19:00:53.410Z,15.60
2019-04-04T19:03:40.971Z,15.60
2019-04-04T19:06:34.322Z,15.60
2019-04-04T19:09:27.778Z,15.60
2019-04-04T19:12:16.017Z,15.60
2019-04-04T19:14:59.494Z,15.50
2019-04-04T19:17:39.125Z,15.50
2019-04-04T19:20:38.532Z,15.50
2019-04-04T19:23:28.698Z,15.40
2019-04-04T19:26:18.240Z,15.40
2019-04-04T19:28:57.168Z,15.50
2019-04-04T19:31:38.419Z,15.50
2019-04-04T19:34:21.108Z,15.50
2019-04-04T19:37:06.623Z,15.50
2019-04-04T19:39:48.389Z,15.50
2019-04-04T19:42:25.871Z,15.50
2019-04-04T19:45:10.606Z,15.50
2019-04-04T19:47:58.378Z,15.60
2019-04-04T19:50:50.223Z,15.50
2019-04-04T19:53:34.790Z,15.50
2019-04-04T19:56:28.693Z,15.50
2019-04-04T19:59:18.949Z,15.60
2019-04-04T20:02:12.013Z,15.60
2019-04-04T20:05:18.194Z,15.60
2019-04-04T20:07:56.371Z,15.60
2019-04-04T20:10:48.671Z,15.60
2019-04-04T20:13:31.462Z,15.60
2019-04-04T20:16:12.540Z,15.60
2019-04-04T20:19:00.286Z,15.50
2019-04-04T20:21:56.232Z,15.50
2019-04-04T20:25:01.112Z,15.50
2019-04-04T20:27:53.910Z,15.40
2019-04-04T20:30:40.359Z,15.40
2019-04-04T20:33:27.238Z,15.30
2019-04-04T20:36:18.171Z,15.20
2019-04-04T20:39:12.870Z,15.20
2019-04-04T20:41:55.458Z,15.20
2019-04-04T20:44:43.929Z,15.10
2019-04-04T20:47:36.762Z,15.10
2019-04-04T20:50:13.770Z,15.00
2019-04-04T20:53:01.296Z,15.00
2019-04-04T20:55:54.786Z,14.90
2019-04-04T20:58:41.449Z,14.90
2019-04-04T21:01:30.650Z,14.90
2019-04-04T21:04:32.884Z,14.80
2019-04-04T21:07:14.108Z,14.80
2019-04-04T21:10:01.201Z,14.70
2019-04-04T21:12:52.396Z,14.70
2019-04-04T21:15:32.558Z,14.70
2019-04-04T21:18:17.709Z,14.60
2019-04-04T21:21:01.907Z,14.60
2019-04-04T21:23:49.781Z,14.50
2019-04-04T21:29:50.605Z,14.30
2019-04-04T21:32:53.163Z,14.30
2019-04-04T21:35:59.835Z,14.20
2019-04-04T21:38:50.366Z,14.10
2019-04-04T21:41:30.039Z,14.10
2019-04-04T21:44:38.199Z,14.00
2019-04-04T21:47:31.530Z,14.00
2019-04-04T21:50:20.628Z,14.00
2019-04-04T21:53:21.721Z,13.90
2019-04-04T21:56:13.891Z,13.90
2019-04-04T21:59:20.331Z,13.80
2019-04-04T22:02:14.268Z,13.80
2019-04-04T22:05:00.115Z,13.70
2019-04-04T22:07:49.823Z,13.70
2019-04-04T22:10:30.372Z,13.60
2019-04-04T22:13:23.433Z,13.60
2019-04-04T22:16:07.357Z,13.60
2019-04-04T22:18:56.035Z,13.60
2019-04-04T22:21:40.549Z,13.60
2019-04-04T22:24:28.854Z,13.50
2019-04-04T22:27:09.337Z,13.50
2019-04-04T22:29:52.475Z,13.50
2019-04-04T22:32:43.485Z,13.40
2019-04-04T22:35:33.575Z,13.40
2019-04-04T22:38:22.102Z,13.30
2019-04-04T22:41:05.785Z,13.30
2019-04-04T22:43:44.832Z,13.20
2019-04-04T22:46:41.725Z,13.20
2019-04-04T22:49:39.319Z,13.20
2019-04-04T22:52:22.484Z,13.20
2019-04-04T22:55:26.423Z,13.10
2019-04-04T22:58:27.591Z,13.10
2019-04-04T23:01:08.433Z,13.10
2019-04-04T23:04:10.278Z,13.10
2019-04-04T23:07:24.822Z,13.00
2019-04-04T23:15:44.737Z,13.10
2019-04-04T23:17:57.246Z,13.10
2019-04-04T23:24:07.258Z,13.20
2019-04-04T23:26:58.981Z,13.20
2019-04-04T23:30:28.583Z,13.30
2019-04-04T23:33:48.038Z,13.30
2019-04-04T23:36:35.053Z,13.40
2019-04-04T23:39:23.870Z,13.40
2019-04-04T23:45:46.253Z,13.40
2019-04-04T23:48:32.188Z,13.40
2019-04-04T23:51:22.788Z,13.40
2019-04-04T23:54:10.793Z,13.40
2019-04-04T23:57:13.415Z,13.50
2019-04-04T23:59:59.627Z,13.50
